sensor_id;sensor_type;location;lat;lon;timestamp;temperature;humidity
49717;DHT22;35609;53.166;7.610;2022-08-01T12:47:01;22.70;99.90
49717;DHT22;35609;53.166;7.610;2022-08-01T12:49:27;22.30;99.90
49717;DHT22;35609;53.166;7.610;2022-08-01T12:51:54;22.00;99.90
49717;DHT22;35609;53.166;7.610;2022-08-01T12:54:20;22.10;99.90
49717;DHT22;35609;53.166;7.610;2022-08-01T12:56:47;22.00;99.90
49717;DHT22;35609;53.166;7.610;2022-08-01T12:59:23;21.40;99.90
49717;DHT22;35609;53.166;7.610;2022-08-01T13:01:54;21.30;99.50
49717;DHT22;35609;53.166;7.610;2022-08-01T13:04:23;21.20;99.90
49717;DHT22;35609;53.166;7.610;2022-08-01T13:06:53;21.70;98.60
49717;DHT22;35609;53.166;7.610;2022-08-01T13:09:19;21.90;97.40
49717;DHT22;35609;53.166;7.610;2022-08-01T13:11:45;21.30;98.30
49717;DHT22;35609;53.166;7.610;2022-08-01T13:14:28;21.50;98.80
49717;DHT22;35609;53.166;7.610;2022-08-01T13:16:54;21.60;98.30
49717;DHT22;35609;53.166;7.610;2022-08-01T13:19:20;21.60;97.30
49717;DHT22;35609;53.166;7.610;2022-08-01T13:21:57;21.40;97.30
49717;DHT22;35609;53.166;7.610;2022-08-01T13:24:29;21.60;97.30
49717;DHT22;35609;53.166;7.610;2022-08-01T13:26:57;21.60;97.80
49717;DHT22;35609;53.166;7.610;2022-08-01T13:29:33;21.70;95.30
49717;DHT22;35609;53.166;7.610;2022-08-01T13:32:11;21.90;96.50
49717;DHT22;35609;53.166;7.610;2022-08-01T13:34:37;22.10;97.90
49717;DHT22;35609;53.166;7.610;2022-08-01T13:37:03;22.60;97.90
49717;DHT22;35609;53.166;7.610;2022-08-01T13:39:29;22.40;96.80
49717;DHT22;35609;53.166;7.610;2022-08-01T13:42:12;22.70;99.20
49717;DHT22;35609;53.166;7.610;2022-08-01T13:44:38;22.90;97.00
49717;DHT22;35609;53.166;7.610;2022-08-01T13:47:05;22.90;97.00
49717;DHT22;35609;53.166;7.610;2022-08-01T13:49:31;23.60;96.10
49717;DHT22;35609;53.166;7.610;2022-08-01T13:51:57;24.20;97.90
49717;DHT22;35609;53.166;7.610;2022-08-01T13:54:23;23.90;94.90
49717;DHT22;35609;53.166;7.610;2022-08-01T13:56:50;23.50;94.90
49717;DHT22;35609;53.166;7.610;2022-08-01T13:59:16;23.70;98.20
49717;DHT22;35609;53.166;7.610;2022-08-01T14:01:42;24.70;94.50
49717;DHT22;35609;53.166;7.610;2022-08-01T14:04:07;24.80;92.00
49717;DHT22;35609;53.166;7.610;2022-08-01T14:06:34;24.90;95.80
49717;DHT22;35609;53.166;7.610;2022-08-01T14:09:03;24.40;92.30
49717;DHT22;35609;53.166;7.610;2022-08-01T14:11:29;23.70;93.40
49717;DHT22;35609;53.166;7.610;2022-08-01T14:13:55;23.50;94.80
49717;DHT22;35609;53.166;7.610;2022-08-01T14:16:21;23.60;92.00
49717;DHT22;35609;53.166;7.610;2022-08-01T14:18:46;22.90;93.70
49717;DHT22;35609;53.166;7.610;2022-08-01T14:21:12;22.80;93.10
49717;DHT22;35609;53.166;7.610;2022-08-01T14:23:38;23.00;93.80
49717;DHT22;35609;53.166;7.610;2022-08-01T14:26:03;23.00;93.30
49717;DHT22;35609;53.166;7.610;2022-08-01T14:28:29;23.10;94.70
49717;DHT22;35609;53.166;7.610;2022-08-01T14:30:56;23.10;94.20
49717;DHT22;35609;53.166;7.610;2022-08-01T14:33:22;22.90;94.30
49717;DHT22;35609;53.166;7.610;2022-08-01T14:35:48;22.70;94.40
49717;DHT22;35609;53.166;7.610;2022-08-01T14:38:14;23.40;95.60
49717;DHT22;35609;53.166;7.610;2022-08-01T14:40:39;23.60;93.20
49717;DHT22;35609;53.166;7.610;2022-08-01T14:43:06;23.00;93.70
49717;DHT22;35609;53.166;7.610;2022-08-01T14:45:32;22.90;94.40
49717;DHT22;35609;53.166;7.610;2022-08-01T14:47:58;22.40;93.80
49717;DHT22;35609;53.166;7.610;2022-08-01T14:50:24;23.00;94.40
49717;DHT22;35609;53.166;7.610;2022-08-01T14:52:52;23.20;92.70
49717;DHT22;35609;53.166;7.610;2022-08-01T14:55:18;23.30;92.60
49717;DHT22;35609;53.166;7.610;2022-08-01T14:57:46;23.70;93.60
49717;DHT22;35609;53.166;7.610;2022-08-01T15:00:12;23.50;91.90
49717;DHT22;35609;53.166;7.610;2022-08-01T15:02:39;23.70;91.90
49717;DHT22;35609;53.166;7.610;2022-08-01T15:05:05;23.80;92.40
49717;DHT22;35609;53.166;7.610;2022-08-01T15:07:31;23.50;92.60
49717;DHT22;35609;53.166;7.610;2022-08-01T15:09:57;23.50;92.10
49717;DHT22;35609;53.166;7.610;2022-08-01T15:12:23;23.40;92.00
49717;DHT22;35609;53.166;7.610;2022-08-01T15:14:49;23.00;92.40
49717;DHT22;35609;53.166;7.610;2022-08-01T15:17:22;22.60;92.90
49717;DHT22;35609;53.166;7.610;2022-08-01T15:19:52;22.50;92.40
49717;DHT22;35609;53.166;7.610;2022-08-01T15:22:19;22.30;93.70
49717;DHT22;35609;53.166;7.610;2022-08-01T15:24:46;22.10;94.70
49717;DHT22;35609;53.166;7.610;2022-08-01T15:27:12;22.20;96.00
49717;DHT22;35609;53.166;7.610;2022-08-01T15:29:38;22.30;94.70
49717;DHT22;35609;53.166;7.610;2022-08-01T15:32:05;22.20;94.50
49717;DHT22;35609;53.166;7.610;2022-08-01T15:34:32;22.40;95.00
49717;DHT22;35609;53.166;7.610;2022-08-01T15:36:58;22.60;94.20
49717;DHT22;35609;53.166;7.610;2022-08-01T15:39:24;22.60;94.30
49717;DHT22;35609;53.166;7.610;2022-08-01T15:41:50;22.70;94.90
49717;DHT22;35609;53.166;7.610;2022-08-01T15:44:16;22.10;94.40
49717;DHT22;35609;53.166;7.610;2022-08-01T15:46:48;21.90;94.90
49717;DHT22;35609;53.166;7.610;2022-08-01T15:49:14;21.40;95.70
49717;DHT22;35609;53.166;7.610;2022-08-01T15:51:40;21.00;95.60
49717;DHT22;35609;53.166;7.610;2022-08-01T15:54:06;21.00;96.20
49717;DHT22;35609;53.166;7.610;2022-08-01T15:56:33;21.00;96.00
49717;DHT22;35609;53.166;7.610;2022-08-01T15:58:59;21.00;95.90
49717;DHT22;35609;53.166;7.610;2022-08-01T16:01:25;21.40;95.20
49717;DHT22;35609;53.166;7.610;2022-08-01T16:03:52;21.90;94.90
49717;DHT22;35609;53.166;7.610;2022-08-01T16:06:18;22.20;93.90
49717;DHT22;35609;53.166;7.610;2022-08-01T16:08:44;22.10;94.20
49717;DHT22;35609;53.166;7.610;2022-08-01T16:11:09;22.20;95.00
49717;DHT22;35609;53.166;7.610;2022-08-01T16:13:35;22.60;93.80
49717;DHT22;35609;53.166;7.610;2022-08-01T16:16:01;22.60;93.20
49717;DHT22;35609;53.166;7.610;2022-08-01T16:18:29;22.20;93.40
49717;DHT22;35609;53.166;7.610;2022-08-01T16:20:56;21.40;94.60
49717;DHT22;35609;53.166;7.610;2022-08-01T16:23:23;21.60;94.80
49717;DHT22;35609;53.166;7.610;2022-08-01T16:25:50;21.60;94.10
49717;DHT22;35609;53.166;7.610;2022-08-01T16:28:16;21.30;94.40
49717;DHT22;35609;53.166;7.610;2022-08-01T16:30:42;21.60;94.80
49717;DHT22;35609;53.166;7.610;2022-08-01T16:33:07;21.70;94.60
49717;DHT22;35609;53.166;7.610;2022-08-01T16:35:33;21.50;94.90
49717;DHT22;35609;53.166;7.610;2022-08-01T16:37:59;21.40;94.20
49717;DHT22;35609;53.166;7.610;2022-08-01T16:40:24;21.70;95.50
49717;DHT22;35609;53.166;7.610;2022-08-01T16:42:50;22.40;96.80
49717;DHT22;35609;53.166;7.610;2022-08-01T16:45:16;23.00;96.00
49717;DHT22;35609;53.166;7.610;2022-08-01T16:47:46;23.20;94.00
49717;DHT22;35609;53.166;7.610;2022-08-01T16:50:12;23.40;91.80
49717;DHT22;35609;53.166;7.610;2022-08-01T16:52:38;23.60;93.80
49717;DHT22;35609;53.166;7.610;2022-08-01T16:55:04;23.90;93.00
49717;DHT22;35609;53.166;7.610;2022-08-01T16:57:30;23.90;93.20
49717;DHT22;35609;53.166;7.610;2022-08-01T17:00:07;23.40;91.50
49717;DHT22;35609;53.166;7.610;2022-08-01T17:02:34;22.90;92.20
49717;DHT22;35609;53.166;7.610;2022-08-01T17:05:00;23.00;92.90
49717;DHT22;35609;53.166;7.610;2022-08-01T17:07:26;22.90;93.50
49717;DHT22;35609;53.166;7.610;2022-08-01T17:09:52;22.40;93.70
49717;DHT22;35609;53.166;7.610;2022-08-01T17:12:18;22.00;94.60
49717;DHT22;35609;53.166;7.610;2022-08-01T17:14:44;21.60;95.10
49717;DHT22;35609;53.166;7.610;2022-08-01T17:17:09;21.30;95.80
49717;DHT22;35609;53.166;7.610;2022-08-01T17:19:35;21.10;96.10
49717;DHT22;35609;53.166;7.610;2022-08-01T17:22:01;21.20;96.80
49717;DHT22;35609;53.166;7.610;2022-08-01T17:24:27;21.10;96.20
49717;DHT22;35609;53.166;7.610;2022-08-01T17:26:52;21.20;96.00
49717;DHT22;35609;53.166;7.610;2022-08-01T17:29:18;21.20;97.00
49717;DHT22;35609;53.166;7.610;2022-08-01T17:31:44;21.30;96.10
49717;DHT22;35609;53.166;7.610;2022-08-01T17:34:09;21.10;95.90
49717;DHT22;35609;53.166;7.610;2022-08-01T17:36:35;21.10;95.60
49717;DHT22;35609;53.166;7.610;2022-08-01T17:39:01;20.80;95.80
49717;DHT22;35609;53.166;7.610;2022-08-01T17:41:28;20.50;96.70
49717;DHT22;35609;53.166;7.610;2022-08-01T17:43:53;20.20;97.50
49717;DHT22;35609;53.166;7.610;2022-08-01T17:46:19;20.00;97.50
49717;DHT22;35609;53.166;7.610;2022-08-01T17:48:45;19.80;98.30
49717;DHT22;35609;53.166;7.610;2022-08-01T17:51:11;19.70;98.80
49717;DHT22;35609;53.166;7.610;2022-08-01T17:53:37;19.50;97.60
49717;DHT22;35609;53.166;7.610;2022-08-01T17:56:03;19.40;98.10
49717;DHT22;35609;53.166;7.610;2022-08-01T17:58:30;19.10;99.80
49717;DHT22;35609;53.166;7.610;2022-08-01T18:00:56;19.10;99.70
49717;DHT22;35609;53.166;7.610;2022-08-01T18:03:22;19.00;99.90
49717;DHT22;35609;53.166;7.610;2022-08-01T18:05:48;18.80;99.90
49717;DHT22;35609;53.166;7.610;2022-08-01T18:08:13;18.80;99.90
49717;DHT22;35609;53.166;7.610;2022-08-01T18:10:39;18.70;99.90
49717;DHT22;35609;53.166;7.610;2022-08-01T18:13:05;18.60;99.90
49717;DHT22;35609;53.166;7.610;2022-08-01T18:15:32;18.60;99.90
49717;DHT22;35609;53.166;7.610;2022-08-01T18:17:57;18.60;99.90
49717;DHT22;35609;53.166;7.610;2022-08-01T18:20:24;18.40;99.90
49717;DHT22;35609;53.166;7.610;2022-08-01T18:22:49;18.20;99.90
49717;DHT22;35609;53.166;7.610;2022-08-01T18:25:16;18.10;99.90
49717;DHT22;35609;53.166;7.610;2022-08-01T18:27:41;18.00;99.90
49717;DHT22;35609;53.166;7.610;2022-08-01T18:30:07;17.90;99.90
49717;DHT22;35609;53.166;7.610;2022-08-01T18:32:33;17.80;99.90
49717;DHT22;35609;53.166;7.610;2022-08-01T18:34:58;17.80;99.90
49717;DHT22;35609;53.166;7.610;2022-08-01T18:37:24;17.80;99.90
49717;DHT22;35609;53.166;7.610;2022-08-01T18:39:50;17.50;99.90
49717;DHT22;35609;53.166;7.610;2022-08-01T18:42:16;17.50;99.90
49717;DHT22;35609;53.166;7.610;2022-08-01T18:44:41;17.30;99.90
49717;DHT22;35609;53.166;7.610;2022-08-01T18:47:07;17.10;99.90
49717;DHT22;35609;53.166;7.610;2022-08-01T18:49:33;17.00;99.90
49717;DHT22;35609;53.166;7.610;2022-08-01T18:51:58;16.80;99.90
49717;DHT22;35609;53.166;7.610;2022-08-01T18:54:24;16.70;99.90
49717;DHT22;35609;53.166;7.610;2022-08-01T18:56:51;16.50;99.90
49717;DHT22;35609;53.166;7.610;2022-08-01T18:59:17;16.30;99.90
49717;DHT22;35609;53.166;7.610;2022-08-01T19:01:43;16.10;99.90
49717;DHT22;35609;53.166;7.610;2022-08-01T19:04:09;16.10;99.90
49717;DHT22;35609;53.166;7.610;2022-08-01T19:06:36;15.90;99.90
49717;DHT22;35609;53.166;7.610;2022-08-01T19:09:02;15.80;99.90
49717;DHT22;35609;53.166;7.610;2022-08-01T19:11:32;15.70;99.90
49717;DHT22;35609;53.166;7.610;2022-08-01T19:13:58;15.50;99.90
49717;DHT22;35609;53.166;7.610;2022-08-01T19:16:24;15.40;99.90
49717;DHT22;35609;53.166;7.610;2022-08-01T19:18:50;15.10;99.90
49717;DHT22;35609;53.166;7.610;2022-08-01T19:21:16;14.90;99.90
49717;DHT22;35609;53.166;7.610;2022-08-01T19:23:42;14.70;99.90
49717;DHT22;35609;53.166;7.610;2022-08-01T19:26:26;14.50;99.90
49717;DHT22;35609;53.166;7.610;2022-08-01T19:28:56;14.30;99.90
49717;DHT22;35609;53.166;7.610;2022-08-01T19:31:25;14.10;99.90
49717;DHT22;35609;53.166;7.610;2022-08-01T19:33:53;14.00;99.90
49717;DHT22;35609;53.166;7.610;2022-08-01T19:36:19;13.70;99.90
49717;DHT22;35609;53.166;7.610;2022-08-01T19:38:45;13.50;99.90
49717;DHT22;35609;53.166;7.610;2022-08-01T19:41:13;13.30;99.90
49717;DHT22;35609;53.166;7.610;2022-08-01T19:43:39;13.10;99.90
49717;DHT22;35609;53.166;7.610;2022-08-01T19:46:05;13.10;99.90
49717;DHT22;35609;53.166;7.610;2022-08-01T19:48:36;12.90;99.90
49717;DHT22;35609;53.166;7.610;2022-08-01T19:51:03;12.80;99.90
49717;DHT22;35609;53.166;7.610;2022-08-01T19:53:38;12.70;99.90
49717;DHT22;35609;53.166;7.610;2022-08-01T19:56:06;12.50;99.90
49717;DHT22;35609;53.166;7.610;2022-08-01T19:58:40;12.40;99.90
49717;DHT22;35609;53.166;7.610;2022-08-01T20:01:11;12.30;99.90
49717;DHT22;35609;53.166;7.610;2022-08-01T20:03:41;12.10;99.90
49717;DHT22;35609;53.166;7.610;2022-08-01T20:06:07;12.00;99.90
49717;DHT22;35609;53.166;7.610;2022-08-01T20:08:34;11.90;99.90
49717;DHT22;35609;53.166;7.610;2022-08-01T20:11:02;11.80;99.90
49717;DHT22;35609;53.166;7.610;2022-08-01T20:13:28;11.70;99.90
49717;DHT22;35609;53.166;7.610;2022-08-01T20:15:55;11.50;99.90
49717;DHT22;35609;53.166;7.610;2022-08-01T20:18:22;11.50;99.90
49717;DHT22;35609;53.166;7.610;2022-08-01T20:20:50;11.40;99.90
49717;DHT22;35609;53.166;7.610;2022-08-01T20:23:19;11.20;99.90
49717;DHT22;35609;53.166;7.610;2022-08-01T20:25:48;11.20;99.90
49717;DHT22;35609;53.166;7.610;2022-08-01T20:28:14;11.20;99.90
49717;DHT22;35609;53.166;7.610;2022-08-01T20:30:41;11.10;99.90
49717;DHT22;35609;53.166;7.610;2022-08-01T20:33:08;11.10;99.90
49717;DHT22;35609;53.166;7.610;2022-08-01T20:35:36;11.00;99.90
49717;DHT22;35609;53.166;7.610;2022-08-01T20:38:02;10.90;99.90
49717;DHT22;35609;53.166;7.610;2022-08-01T20:40:29;10.80;99.90
49717;DHT22;35609;53.166;7.610;2022-08-01T20:42:56;10.70;99.90
49717;DHT22;35609;53.166;7.610;2022-08-01T20:45:23;10.60;99.90
49717;DHT22;35609;53.166;7.610;2022-08-01T20:47:51;10.50;99.90
49717;DHT22;35609;53.166;7.610;2022-08-01T20:50:19;10.50;99.90
49717;DHT22;35609;53.166;7.610;2022-08-01T20:53:04;10.40;99.90
49717;DHT22;35609;53.166;7.610;2022-08-01T20:55:44;10.30;99.90
49717;DHT22;35609;53.166;7.610;2022-08-01T20:58:25;10.30;99.90
49717;DHT22;35609;53.166;7.610;2022-08-01T21:00:53;10.10;99.90
49717;DHT22;35609;53.166;7.610;2022-08-01T21:03:22;10.10;99.90
49717;DHT22;35609;53.166;7.610;2022-08-01T21:06:00;10.00;99.90
49717;DHT22;35609;53.166;7.610;2022-08-01T21:11:04;9.80;99.90
49717;DHT22;35609;53.166;7.610;2022-08-01T21:13:40;9.80;99.90
49717;DHT22;35609;53.166;7.610;2022-08-01T21:16:09;9.70;99.90
49717;DHT22;35609;53.166;7.610;2022-08-01T21:18:38;9.60;99.90
49717;DHT22;35609;53.166;7.610;2022-08-01T21:21:17;9.60;99.90
49717;DHT22;35609;53.166;7.610;2022-08-01T21:26:23;9.50;99.90
49717;DHT22;35609;53.166;7.610;2022-08-01T21:28:50;9.40;99.90
49717;DHT22;35609;53.166;7.610;2022-08-01T21:31:21;9.40;99.90
49717;DHT22;35609;53.166;7.610;2022-08-01T21:33:48;9.30;99.90
49717;DHT22;35609;53.166;7.610;2022-08-01T21:36:17;9.30;99.90
49717;DHT22;35609;53.166;7.610;2022-08-01T21:38:43;9.20;99.90
49717;DHT22;35609;53.166;7.610;2022-08-01T21:41:10;9.20;99.90
49717;DHT22;35609;53.166;7.610;2022-08-01T21:43:36;9.10;99.90
49717;DHT22;35609;53.166;7.610;2022-08-01T21:46:03;9.10;99.90
49717;DHT22;35609;53.166;7.610;2022-08-01T21:48:30;9.00;99.90
49717;DHT22;35609;53.166;7.610;2022-08-01T21:51:03;8.90;99.90
49717;DHT22;35609;53.166;7.610;2022-08-01T21:54:03;8.90;99.90
49717;DHT22;35609;53.166;7.610;2022-08-01T21:59:48;8.80;99.90
49717;DHT22;35609;53.166;7.610;2022-08-01T22:02:27;8.70;99.90
49717;DHT22;35609;53.166;7.610;2022-08-01T22:05:03;8.70;99.90
49717;DHT22;35609;53.166;7.610;2022-08-01T22:07:33;8.60;99.90
49717;DHT22;35609;53.166;7.610;2022-08-01T22:10:03;8.60;99.90
49717;DHT22;35609;53.166;7.610;2022-08-01T22:12:34;8.50;99.90
49717;DHT22;35609;53.166;7.610;2022-08-01T22:15:03;8.50;99.90
49717;DHT22;35609;53.166;7.610;2022-08-01T22:17:30;8.40;99.90
49717;DHT22;35609;53.166;7.610;2022-08-01T22:19:56;8.50;99.90
49717;DHT22;35609;53.166;7.610;2022-08-01T22:22:22;8.40;99.90
49717;DHT22;35609;53.166;7.610;2022-08-01T22:24:49;8.40;99.90
49717;DHT22;35609;53.166;7.610;2022-08-01T22:27:18;8.40;99.90
49717;DHT22;35609;53.166;7.610;2022-08-01T22:29:55;8.40;99.90
49717;DHT22;35609;53.166;7.610;2022-08-01T22:32:30;8.40;99.90
49717;DHT22;35609;53.166;7.610;2022-08-01T22:34:56;8.30;99.90
49717;DHT22;35609;53.166;7.610;2022-08-01T22:37:26;8.20;99.90
49717;DHT22;35609;53.166;7.610;2022-08-01T22:39:53;8.20;99.90
49717;DHT22;35609;53.166;7.610;2022-08-01T22:42:26;8.20;99.90
49717;DHT22;35609;53.166;7.610;2022-08-01T22:48:07;8.20;99.90
49717;DHT22;35609;53.166;7.610;2022-08-01T22:50:45;8.10;99.90
49717;DHT22;35609;53.166;7.610;2022-08-01T22:53:52;8.10;99.90
49717;DHT22;35609;53.166;7.610;2022-08-01T22:56:19;8.10;99.90
49717;DHT22;35609;53.166;7.610;2022-08-01T22:58:47;8.00;99.90
49717;DHT22;35609;53.166;7.610;2022-08-01T23:01:20;7.90;99.90
49717;DHT22;35609;53.166;7.610;2022-08-01T23:03:49;7.90;99.90
49717;DHT22;35609;53.166;7.610;2022-08-01T23:06:35;8.00;99.90
49717;DHT22;35609;53.166;7.610;2022-08-01T23:09:03;8.00;99.90
49717;DHT22;35609;53.166;7.610;2022-08-01T23:11:29;7.90;99.90
49717;DHT22;35609;53.166;7.610;2022-08-01T23:13:57;7.90;99.90
49717;DHT22;35609;53.166;7.610;2022-08-01T23:16:24;7.90;99.90
49717;DHT22;35609;53.166;7.610;2022-08-01T23:18:51;7.80;99.90
49717;DHT22;35609;53.166;7.610;2022-08-01T23:21:19;7.80;99.90
49717;DHT22;35609;53.166;7.610;2022-08-01T23:23:47;7.70;99.90
49717;DHT22;35609;53.166;7.610;2022-08-01T23:26:13;7.60;99.90
49717;DHT22;35609;53.166;7.610;2022-08-01T23:28:40;7.60;99.90
49717;DHT22;35609;53.166;7.610;2022-08-01T23:31:07;7.50;99.90
49717;DHT22;35609;53.166;7.610;2022-08-01T23:33:34;7.50;99.90
49717;DHT22;35609;53.166;7.610;2022-08-01T23:36:00;7.40;99.90
49717;DHT22;35609;53.166;7.610;2022-08-01T23:38:26;7.40;99.90
49717;DHT22;35609;53.166;7.610;2022-08-01T23:40:51;7.30;99.90
49717;DHT22;35609;53.166;7.610;2022-08-01T23:43:17;7.30;99.90
49717;DHT22;35609;53.166;7.610;2022-08-01T23:45:44;7.30;99.90
49717;DHT22;35609;53.166;7.610;2022-08-01T23:48:09;7.10;99.90
49717;DHT22;35609;53.166;7.610;2022-08-01T23:50:35;7.20;99.90
49717;DHT22;35609;53.166;7.610;2022-08-01T23:53:01;7.20;99.90
49717;DHT22;35609;53.166;7.610;2022-08-01T23:55:26;7.10;99.90
49717;DHT22;35609;53.166;7.610;2022-08-01T23:57:52;7.10;99.90
